createdAt,value
2019-05-23T00:00:10.807Z,62.50
2019-05-23T00:02:41.925Z,62.35
2019-05-23T00:05:13.118Z,62.40
2019-05-23T00:07:45.498Z,62.62
2019-05-23T00:10:23.345Z,62.83
2019-05-23T00:13:02.093Z,62.83
2019-05-23T00:15:35.489Z,62.74
2019-05-23T00:18:08.852Z,62.63
2019-05-23T00:20:39.143Z,62.68
2019-05-23T00:23:08.758Z,62.64
2019-05-23T00:25:39.391Z,62.65
2019-05-23T00:28:09.088Z,62.81
2019-05-23T00:30:39.652Z,62.88
2019-05-23T00:33:10.146Z,62.99
2019-05-23T00:35:38.884Z,63.00
2019-05-23T00:38:07.829Z,62.99
2019-05-23T00:40:39.342Z,62.95
2019-05-23T00:43:09.784Z,62.99
2019-05-23T00:45:39.114Z,63.14
2019-05-23T00:48:08.029Z,63.28
2019-05-23T00:50:38.399Z,63.47
2019-05-23T00:53:07.110Z,63.69
2019-05-23T00:55:36.710Z,64.08
2019-05-23T00:58:05.822Z,64.46
2019-05-23T01:00:36.950Z,64.50
2019-05-23T01:03:06.826Z,64.45
2019-05-23T01:05:35.437Z,64.38
2019-05-23T01:08:06.030Z,64.50
2019-05-23T01:10:35.037Z,64.71
2019-05-23T01:13:04.159Z,64.95
2019-05-23T01:15:32.958Z,65.11
2019-05-23T01:18:02.063Z,65.25
2019-05-23T01:20:34.973Z,65.35
2019-05-23T01:23:05.255Z,65.52
2019-05-23T01:25:34.868Z,65.60
2019-05-23T01:28:03.902Z,65.63
2019-05-23T01:30:37.533Z,65.48
2019-05-23T01:33:07.930Z,65.22
2019-05-23T01:35:37.553Z,65.05
2019-05-23T01:38:07.943Z,64.88
2019-05-23T01:40:37.052Z,64.67
2019-05-23T01:43:05.656Z,64.50
2019-05-23T01:45:35.558Z,64.24
2019-05-23T01:48:05.912Z,64.21
2019-05-23T01:50:35.040Z,64.09
2019-05-23T01:53:05.727Z,63.92
2019-05-23T01:55:35.157Z,63.87
2019-05-23T01:58:04.058Z,63.85
2019-05-23T02:00:33.378Z,63.75
2019-05-23T02:03:02.221Z,63.70
2019-05-23T02:05:33.329Z,63.67
2019-05-23T02:08:04.998Z,63.71
2019-05-23T02:10:34.084Z,63.83
2019-05-23T02:13:04.016Z,64.10
2019-05-23T02:15:33.012Z,64.26
2019-05-23T02:18:02.285Z,64.26
2019-05-23T02:20:33.937Z,64.23
2019-05-23T02:23:02.969Z,64.19
2019-05-23T02:25:33.470Z,64.13
2019-05-23T02:28:04.129Z,64.10
2019-05-23T02:30:35.800Z,64.13
2019-05-23T02:33:03.785Z,64.17
2019-05-23T02:35:32.381Z,64.13
2019-05-23T02:38:10.311Z,64.04
2019-05-23T02:40:56.161Z,64.04
2019-05-23T02:43:26.997Z,64.00
2019-05-23T02:45:58.976Z,63.99
2019-05-23T02:48:31.486Z,63.99
2019-05-23T02:51:03.421Z,64.00
2019-05-23T02:53:33.829Z,64.18
2019-05-23T02:56:05.773Z,64.44
2019-05-23T02:58:44.893Z,64.65
2019-05-23T03:01:36.366Z,64.81
2019-05-23T03:04:08.329Z,64.81
2019-05-23T03:06:39.592Z,64.80
2019-05-23T03:09:08.697Z,64.90
2019-05-23T03:11:39.349Z,64.81
2019-05-23T03:14:11.214Z,64.79
2019-05-23T03:16:43.145Z,64.74
2019-05-23T03:19:18.710Z,64.71
2019-05-23T03:21:49.659Z,64.65
2019-05-23T03:24:20.079Z,64.60
2019-05-23T03:26:58.380Z,64.62
2019-05-23T03:29:28.825Z,64.81
2019-05-23T03:31:59.153Z,64.74
2019-05-23T03:34:29.379Z,64.64
2019-05-23T03:36:57.866Z,64.43
2019-05-23T03:39:27.755Z,64.38
2019-05-23T03:42:00.904Z,64.32
2019-05-23T03:44:30.082Z,64.35
2019-05-23T03:47:01.857Z,64.54
2019-05-23T03:49:31.135Z,64.75
2019-05-23T03:52:01.210Z,64.94
2019-05-23T03:54:32.660Z,65.08
2019-05-23T03:57:01.195Z,65.21
2019-05-23T03:59:31.499Z,65.15
2019-05-23T04:02:07.880Z,65.18
2019-05-23T04:04:37.736Z,65.28
2019-05-23T04:07:08.022Z,65.31
2019-05-23T04:09:39.354Z,65.23
2019-05-23T04:12:08.961Z,65.29
2019-05-23T04:14:38.638Z,65.38
2019-05-23T04:17:08.241Z,65.33
2019-05-23T04:19:37.006Z,65.36
2019-05-23T04:22:07.575Z,65.40
2019-05-23T04:24:40.709Z,65.47
2019-05-23T04:27:09.354Z,65.66
2019-05-23T04:29:41.230Z,65.68
2019-05-23T04:32:10.118Z,65.79
2019-05-23T04:34:39.732Z,65.92
2019-05-23T04:37:08.311Z,66.18
2019-05-23T04:39:36.951Z,66.55
2019-05-23T04:42:10.531Z,66.72
2019-05-23T04:44:44.267Z,66.81
2019-05-23T04:47:14.433Z,66.84
2019-05-23T04:49:43.034Z,66.86
2019-05-23T04:52:12.300Z,66.80
2019-05-23T04:54:41.843Z,66.78
2019-05-23T04:57:12.720Z,66.78
2019-05-23T04:59:43.128Z,66.87
2019-05-23T05:02:25.612Z,66.82
2019-05-23T05:04:44.566Z,66.93
2019-05-23T05:07:13.283Z,67.04
2019-05-23T05:09:43.527Z,66.97
2019-05-23T05:12:12.256Z,66.99
2019-05-23T05:14:46.238Z,66.90
2019-05-23T05:17:14.864Z,66.87
2019-05-23T05:19:43.604Z,66.86
2019-05-23T05:22:14.376Z,66.80
2019-05-23T05:24:43.009Z,66.69
2019-05-23T05:27:12.849Z,66.59
2019-05-23T05:29:41.617Z,66.50
2019-05-23T05:32:10.432Z,66.42
2019-05-23T05:34:39.141Z,66.28
2019-05-23T05:37:08.317Z,66.36
2019-05-23T05:39:37.367Z,66.49
2019-05-23T05:42:09.399Z,66.45
2019-05-23T05:44:40.676Z,65.30
2019-05-23T05:47:14.006Z,63.98
2019-05-23T05:49:46.842Z,62.33
2019-05-23T05:52:18.239Z,61.13
2019-05-23T05:54:46.883Z,60.07
2019-05-23T05:57:17.482Z,59.36
2019-05-23T05:59:49.488Z,58.33
2019-05-23T06:02:19.683Z,57.24
2019-05-23T06:04:48.707Z,56.18
2019-05-23T06:07:18.985Z,55.15
2019-05-23T06:09:49.505Z,54.69
2019-05-23T06:12:18.682Z,54.07
2019-05-23T06:14:47.329Z,53.31
2019-05-23T06:17:21.009Z,52.59
2019-05-23T06:19:49.928Z,51.69
2019-05-23T06:22:21.071Z,50.60
2019-05-23T06:24:58.263Z,49.80
2019-05-23T06:27:27.550Z,49.17
2019-05-23T06:30:03.187Z,48.93
2019-05-23T06:32:32.606Z,48.93
2019-05-23T06:35:01.462Z,48.49
2019-05-23T06:37:34.405Z,47.90
2019-05-23T06:40:12.028Z,47.46
2019-05-23T06:42:40.944Z,46.68
2019-05-23T06:45:11.378Z,46.13
2019-05-23T06:47:40.563Z,45.46
2019-05-23T06:50:16.102Z,45.18
2019-05-23T06:52:47.085Z,45.17
2019-05-23T06:55:15.901Z,45.04
2019-05-23T06:57:44.947Z,44.74
2019-05-23T07:00:25.963Z,44.29
2019-05-23T07:02:54.721Z,43.82
2019-05-23T07:05:37.226Z,43.40
2019-05-23T07:08:11.794Z,43.10
2019-05-23T07:10:44.828Z,42.65
2019-05-23T07:13:38.718Z,42.38
2019-05-23T07:16:16.715Z,42.57
2019-05-23T07:18:50.613Z,42.98
2019-05-23T07:21:29.440Z,42.73
2019-05-23T07:24:05.249Z,42.46
2019-05-23T07:26:48.221Z,42.23
2019-05-23T07:29:18.700Z,42.43
2019-05-23T07:31:48.542Z,42.86
2019-05-23T07:34:19.258Z,43.21
2019-05-23T07:39:36.905Z,43.80
2019-05-23T07:42:06.041Z,43.73
2019-05-23T07:44:47.463Z,43.98
2019-05-23T07:47:09.101Z,44.28
2019-05-23T07:49:39.166Z,44.30
2019-05-23T07:52:14.377Z,44.41
2019-05-23T07:54:55.439Z,44.35
2019-05-23T07:57:27.781Z,44.23
2019-05-23T07:59:58.472Z,43.82
2019-05-23T08:02:36.474Z,43.52
2019-05-23T08:05:10.223Z,43.43
2019-05-23T08:07:41.910Z,43.41
2019-05-23T08:10:14.165Z,43.70
2019-05-23T08:12:49.457Z,44.23
2019-05-23T08:15:21.566Z,44.48
2019-05-23T08:17:50.710Z,44.70
2019-05-23T08:20:21.232Z,44.84
2019-05-23T08:23:04.877Z,44.99
2019-05-23T08:25:41.131Z,45.30
2019-05-23T08:28:15.487Z,45.71
2019-05-23T08:30:46.096Z,46.05
2019-05-23T08:33:16.749Z,46.26
2019-05-23T08:35:47.438Z,46.48
2019-05-23T08:38:23.361Z,46.56
2019-05-23T08:40:58.391Z,46.75
2019-05-23T08:43:36.119Z,46.82
2019-05-23T08:46:06.573Z,47.06
2019-05-23T08:48:41.033Z,47.14
2019-05-23T08:52:07.378Z,47.11
2019-05-23T08:54:47.045Z,46.99
2019-05-23T08:57:19.274Z,46.88
2019-05-23T09:00:00.110Z,46.84
2019-05-23T09:02:30.684Z,46.86
2019-05-23T09:05:06.312Z,46.78
2019-05-23T09:07:36.459Z,46.93
2019-05-23T09:10:06.868Z,47.11
2019-05-23T09:12:36.712Z,47.36
2019-05-23T09:15:10.944Z,47.51
2019-05-23T09:17:53.110Z,47.70
2019-05-23T09:20:46.824Z,47.93
2019-05-23T09:23:15.725Z,48.11
2019-05-23T09:25:53.443Z,48.20
2019-05-23T09:28:27.047Z,48.36
2019-05-23T09:30:59.244Z,48.46
2019-05-23T09:33:30.864Z,48.45
2019-05-23T09:36:04.429Z,48.34
2019-05-23T09:38:37.513Z,48.37
2019-05-23T09:41:06.342Z,48.20
2019-05-23T09:46:42.299Z,48.27
2019-05-23T10:32:17.496Z,47.33
2019-05-23T10:51:21.010Z,46.96
2019-05-23T10:57:33.292Z,47.01
2019-05-23T11:00:27.729Z,47.11
2019-05-23T11:02:58.115Z,47.12
2019-05-23T11:05:42.291Z,47.12
2019-05-23T11:08:11.503Z,47.13
2019-05-23T11:10:46.724Z,47.39
2019-05-23T11:13:17.283Z,47.59
2019-05-23T11:15:49.438Z,47.79
2019-05-23T11:18:19.910Z,48.02
2019-05-23T11:20:49.478Z,48.26
2019-05-23T11:23:21.641Z,48.43
2019-05-23T11:25:52.614Z,48.55
2019-05-23T11:28:27.173Z,48.55
2019-05-23T11:30:57.560Z,48.57
2019-05-23T11:33:26.652Z,48.61
2019-05-23T11:35:57.453Z,48.68
2019-05-23T11:38:26.931Z,48.70
2019-05-23T11:41:00.129Z,48.71
2019-05-23T11:43:34.138Z,48.85
2019-05-23T11:46:07.344Z,48.87
2019-05-23T11:48:42.158Z,48.91
2019-05-23T11:51:15.322Z,49.04
2019-05-23T11:54:05.887Z,49.09
2019-05-23T11:56:18.854Z,49.17
2019-05-23T11:58:53.273Z,49.13
2019-05-23T12:01:33.983Z,49.10
2019-05-23T12:04:11.276Z,49.09
2019-05-23T12:07:10.660Z,49.05
2019-05-23T12:09:46.892Z,48.96
2019-05-23T12:12:18.693Z,48.93
2019-05-23T12:14:53.629Z,48.84
2019-05-23T12:17:27.242Z,48.84
2019-05-23T12:20:03.462Z,48.80
2019-05-23T12:25:38.351Z,48.80
2019-05-23T12:28:10.249Z,48.73
2019-05-23T12:30:43.975Z,48.62
2019-05-23T12:33:19.563Z,48.17
2019-05-23T12:36:06.272Z,47.52
2019-05-23T12:38:52.398Z,46.26
2019-05-23T12:41:22.783Z,45.44
2019-05-23T12:43:53.446Z,43.68
2019-05-23T12:46:29.138Z,43.51
2019-05-23T12:49:18.869Z,43.51
2019-05-23T12:52:09.531Z,43.00
2019-05-23T12:55:02.141Z,42.89
2019-05-23T13:00:40.578Z,42.67
2019-05-23T13:03:34.928Z,42.93
2019-05-23T13:06:09.140Z,42.87
2019-05-23T13:08:42.774Z,43.38
2019-05-23T13:11:18.186Z,43.52
2019-05-23T13:13:58.868Z,43.65
2019-05-23T13:19:25.114Z,43.02
2019-05-23T13:25:23.570Z,43.24
2019-05-23T13:36:55.912Z,41.71
2019-05-23T13:39:30.427Z,41.42
2019-05-23T13:42:15.276Z,41.27
2019-05-23T13:44:49.208Z,41.18
2019-05-23T13:47:29.918Z,41.22
2019-05-23T13:50:07.172Z,41.41
2019-05-23T13:52:41.922Z,41.42
2019-05-23T13:55:12.275Z,41.70
2019-05-23T13:57:46.501Z,41.74
2019-05-23T14:00:23.077Z,41.66
2019-05-23T14:03:01.108Z,41.74
2019-05-23T14:05:50.859Z,41.69
2019-05-23T14:08:23.534Z,41.76
2019-05-23T14:10:56.238Z,41.85
2019-05-23T14:13:43.091Z,42.47
2019-05-23T14:16:14.572Z,42.47
2019-05-23T14:18:52.982Z,43.18
2019-05-23T14:21:28.549Z,43.18
2019-05-23T14:23:57.374Z,43.27
2019-05-23T14:26:30.306Z,43.19
2019-05-23T14:29:19.580Z,43.33
2019-05-23T14:31:52.589Z,43.66
2019-05-23T14:34:25.441Z,44.11
2019-05-23T14:37:07.191Z,44.84
2019-05-23T14:39:44.324Z,45.96
2019-05-23T14:42:42.129Z,46.71
2019-05-23T14:48:38.711Z,47.58
2019-05-23T14:51:16.380Z,47.70
2019-05-23T14:53:54.130Z,47.72
2019-05-23T14:56:42.066Z,47.70
2019-05-23T14:59:16.749Z,47.67
2019-05-23T15:01:55.673Z,47.67
2019-05-23T15:04:30.704Z,47.59
2019-05-23T15:07:00.186Z,47.53
2019-05-23T15:09:33.302Z,47.52
2019-05-23T15:15:08.173Z,47.55
2019-05-23T15:17:39.036Z,47.62
2019-05-23T15:20:12.066Z,47.75
2019-05-23T15:22:40.840Z,47.75
2019-05-23T15:25:15.152Z,47.79
2019-05-23T15:27:54.536Z,47.84
2019-05-23T15:30:28.661Z,48.07
2019-05-23T15:36:05.417Z,48.42
2019-05-23T15:38:47.380Z,48.70
2019-05-23T15:41:22.401Z,48.95
2019-05-23T15:43:52.291Z,48.95
2019-05-23T15:46:24.482Z,49.18
2019-05-23T15:48:59.804Z,49.28
2019-05-23T15:51:31.924Z,49.48
2019-05-23T15:54:15.825Z,49.60
2019-05-23T15:56:54.417Z,49.77
2019-05-23T15:59:59.652Z,49.88
2019-05-23T16:02:33.738Z,50.14
2019-05-23T16:05:15.657Z,50.36
2019-05-23T16:07:59.369Z,50.62
2019-05-23T16:10:43.989Z,50.76
2019-05-23T16:13:21.623Z,50.98
2019-05-23T16:16:05.109Z,51.12
2019-05-23T16:18:35.546Z,51.20
2019-05-23T16:21:10.714Z,51.34
2019-05-23T16:23:45.271Z,51.31
2019-05-23T16:26:17.151Z,51.35
2019-05-23T16:28:46.600Z,51.35
2019-05-23T16:31:28.210Z,51.40
2019-05-23T16:33:59.662Z,51.52
2019-05-23T16:36:30.093Z,51.63
2019-05-23T16:39:13.034Z,51.73
2019-05-23T16:41:45.312Z,51.79
2019-05-23T16:44:17.116Z,51.93
2019-05-23T16:46:48.303Z,52.04
2019-05-23T16:49:22.733Z,52.14
2019-05-23T16:51:56.637Z,52.33
2019-05-23T16:54:27.386Z,52.42
2019-05-23T16:57:00.600Z,52.63
2019-05-23T16:59:33.462Z,52.88
2019-05-23T17:02:06.590Z,53.24
2019-05-23T17:04:38.757Z,53.63
2019-05-23T17:10:18.687Z,54.37
2019-05-23T17:12:51.627Z,54.68
2019-05-23T17:15:24.770Z,54.87
2019-05-23T17:18:09.777Z,55.04
2019-05-23T17:20:52.015Z,55.12
2019-05-23T17:23:40.290Z,55.32
2019-05-23T17:26:16.522Z,55.50
2019-05-23T17:28:46.773Z,55.64
2019-05-23T17:31:17.091Z,56.19
2019-05-23T17:33:47.090Z,56.19
2019-05-23T17:36:15.794Z,56.10
2019-05-23T17:38:47.037Z,56.12
2019-05-23T17:41:21.506Z,56.21
2019-05-23T17:43:52.821Z,56.30
2019-05-23T17:46:27.254Z,56.21
2019-05-23T17:48:55.998Z,56.23
2019-05-23T17:51:25.295Z,56.26
2019-05-23T17:53:54.145Z,56.30
2019-05-23T17:56:30.191Z,56.46
2019-05-23T17:59:10.633Z,56.60
2019-05-23T18:01:55.409Z,56.97
2019-05-23T18:04:25.029Z,56.97
2019-05-23T18:06:58.485Z,57.07
2019-05-23T18:09:29.370Z,57.31
2019-05-23T18:12:04.312Z,57.50
2019-05-23T18:14:43.598Z,57.86
2019-05-23T18:17:14.988Z,58.21
2019-05-23T22:24:20.080Z,61.55
2019-05-23T22:26:51.774Z,61.69
2019-05-23T22:29:20.998Z,61.65
2019-05-23T22:31:51.435Z,61.80
2019-05-23T22:34:36.101Z,61.89
2019-05-23T22:37:06.622Z,61.95
2019-05-23T22:39:58.750Z,61.88
2019-05-23T22:42:32.303Z,62.14
2019-05-23T22:45:07.161Z,62.44
2019-05-23T22:47:38.359Z,62.51
2019-05-23T22:50:13.321Z,62.54
2019-05-23T22:52:47.857Z,62.47
2019-05-23T22:55:20.583Z,62.47
2019-05-23T22:57:59.187Z,62.34
2019-05-23T23:00:33.956Z,62.53
2019-05-23T23:03:03.740Z,62.58
2019-05-23T23:05:32.683Z,62.72
2019-05-23T23:08:06.923Z,62.93
2019-05-23T23:10:39.370Z,63.01
2019-05-23T23:13:09.739Z,63.06
2019-05-23T23:15:43.282Z,63.15
2019-05-23T23:18:12.113Z,63.25
2019-05-23T23:20:40.917Z,63.41
2019-05-23T23:23:10.825Z,63.50
2019-05-23T23:25:39.699Z,63.64
2019-05-23T23:28:08.554Z,63.80
2019-05-23T23:30:45.571Z,63.91
2019-05-23T23:33:19.407Z,64.07
2019-05-23T23:35:49.111Z,64.16
2019-05-23T23:38:25.350Z,64.29
2019-05-23T23:40:55.912Z,64.47
2019-05-23T23:43:31.304Z,64.57
2019-05-23T23:46:22.952Z,64.67
2019-05-23T23:49:09.544Z,64.73
2019-05-23T23:51:58.933Z,64.80
2019-05-23T23:54:45.961Z,64.97
2019-05-23T23:57:32.863Z,64.95
